Terminal Aerodrome Forecast
Issued by NWS Northern Indiana

Home | Current Version | Previous Version | Text Only | Print | Product List | Glossary On
Versions: 1 2 3 4 5 6 7 8 9 10 11 12 13 14
000
FTUS43 KIWX 201733 AAA
TAFFWA
TAF AMD
KFWA 201733Z 2018/2118 21008KT 6SM SHRA SCT015 BKN035
      TEMPO 2018/2020 3SM TSRAGS OVC015CB
     FM202100 30004KT P6SM VCSH OVC025
     FM210000 35004KT P6SM OVC015
     FM210700 36006KT 2SM BR OVC015
     FM211400 01007KT P6SM BKN090=

USA.gov is the U.S. government's official web portal to all federal, state and local government web resources and services.